sensor_id;sensor_type;location;lat;lon;timestamp;P1;durP1;ratioP1;P2;durP2;ratioP2
37655;SDS011;23498;50.958;3.124;2022-08-01T00:02:12;29.67;;;13.80;;
37655;SDS011;23498;50.958;3.124;2022-08-01T00:04:38;30.35;;;14.73;;
37655;SDS011;23498;50.958;3.124;2022-08-01T00:07:04;27.10;;;15.05;;
37655;SDS011;23498;50.958;3.124;2022-08-01T00:09:30;29.25;;;15.18;;
37655;SDS011;23498;50.958;3.124;2022-08-01T00:11:56;27.25;;;16.15;;
37655;SDS011;23498;50.958;3.124;2022-08-01T00:14:22;30.70;;;16.23;;
37655;SDS011;23498;50.958;3.124;2022-08-01T00:16:48;36.30;;;17.38;;
37655;SDS011;23498;50.958;3.124;2022-08-01T00:19:14;34.55;;;17.98;;
37655;SDS011;23498;50.958;3.124;2022-08-01T00:21:40;31.17;;;18.52;;
37655;SDS011;23498;50.958;3.124;2022-08-01T00:24:06;31.85;;;18.85;;
37655;SDS011;23498;50.958;3.124;2022-08-01T00:26:32;35.15;;;18.23;;
37655;SDS011;23498;50.958;3.124;2022-08-01T00:28:58;36.55;;;20.55;;
37655;SDS011;23498;50.958;3.124;2022-08-01T00:31:24;37.20;;;19.88;;
37655;SDS011;23498;50.958;3.124;2022-08-01T00:33:50;36.05;;;20.25;;
37655;SDS011;23498;50.958;3.124;2022-08-01T00:36:16;39.83;;;21.63;;
37655;SDS011;23498;50.958;3.124;2022-08-01T00:38:42;39.65;;;22.83;;
37655;SDS011;23498;50.958;3.124;2022-08-01T00:41:08;47.47;;;24.85;;
37655;SDS011;23498;50.958;3.124;2022-08-01T00:43:34;40.17;;;24.67;;
37655;SDS011;23498;50.958;3.124;2022-08-01T00:46:00;48.10;;;25.38;;
37655;SDS011;23498;50.958;3.124;2022-08-01T00:48:26;47.40;;;25.17;;
37655;SDS011;23498;50.958;3.124;2022-08-01T00:50:52;45.95;;;25.75;;
37655;SDS011;23498;50.958;3.124;2022-08-01T00:53:18;46.03;;;25.65;;
37655;SDS011;23498;50.958;3.124;2022-08-01T00:55:44;43.90;;;24.85;;
37655;SDS011;23498;50.958;3.124;2022-08-01T00:58:10;40.28;;;23.33;;
37655;SDS011;23498;50.958;3.124;2022-08-01T01:00:36;51.83;;;23.52;;
37655;SDS011;23498;50.958;3.124;2022-08-01T01:03:02;35.50;;;18.00;;
37655;SDS011;23498;50.958;3.124;2022-08-01T01:05:28;38.05;;;16.80;;
37655;SDS011;23498;50.958;3.124;2022-08-01T01:13:06;30.02;;;11.77;;
37655;SDS011;23498;50.958;3.124;2022-08-01T01:15:43;29.10;;;11.88;;
37655;SDS011;23498;50.958;3.124;2022-08-01T01:18:17;26.50;;;11.20;;
37655;SDS011;23498;50.958;3.124;2022-08-01T01:25:40;27.13;;;11.32;;
37655;SDS011;23498;50.958;3.124;2022-08-01T01:30:51;30.33;;;10.90;;
37655;SDS011;23498;50.958;3.124;2022-08-01T01:33:19;32.70;;;12.35;;
37655;SDS011;23498;50.958;3.124;2022-08-01T01:35:48;34.45;;;13.35;;
37655;SDS011;23498;50.958;3.124;2022-08-01T01:38:20;36.03;;;12.98;;
37655;SDS011;23498;50.958;3.124;2022-08-01T01:40:47;39.90;;;13.83;;
37655;SDS011;23498;50.958;3.124;2022-08-01T01:43:14;32.22;;;12.50;;
37655;SDS011;23498;50.958;3.124;2022-08-01T01:45:41;27.98;;;11.98;;
37655;SDS011;23498;50.958;3.124;2022-08-01T01:48:08;30.23;;;12.18;;
37655;SDS011;23498;50.958;3.124;2022-08-01T01:50:35;26.90;;;11.10;;
37655;SDS011;23498;50.958;3.124;2022-08-01T01:53:01;26.90;;;10.88;;
37655;SDS011;23498;50.958;3.124;2022-08-01T01:55:28;28.73;;;11.38;;
37655;SDS011;23498;50.958;3.124;2022-08-01T01:57:54;26.63;;;11.00;;
37655;SDS011;23498;50.958;3.124;2022-08-01T02:00:21;22.52;;;9.77;;
37655;SDS011;23498;50.958;3.124;2022-08-01T02:02:47;15.45;;;9.05;;
37655;SDS011;23498;50.958;3.124;2022-08-01T02:05:14;15.88;;;8.80;;
37655;SDS011;23498;50.958;3.124;2022-08-01T02:07:41;23.55;;;8.25;;
37655;SDS011;23498;50.958;3.124;2022-08-01T02:10:07;15.10;;;8.43;;
37655;SDS011;23498;50.958;3.124;2022-08-01T02:12:35;18.58;;;8.85;;
37655;SDS011;23498;50.958;3.124;2022-08-01T02:15:02;20.02;;;9.73;;
37655;SDS011;23498;50.958;3.124;2022-08-01T02:17:29;13.18;;;7.82;;
37655;SDS011;23498;50.958;3.124;2022-08-01T02:19:56;13.48;;;7.68;;
37655;SDS011;23498;50.958;3.124;2022-08-01T02:25:31;12.32;;;7.00;;
37655;SDS011;23498;50.958;3.124;2022-08-01T02:30:05;13.13;;;7.50;;
37655;SDS011;23498;50.958;3.124;2022-08-01T02:32:33;15.05;;;8.38;;
37655;SDS011;23498;50.958;3.124;2022-08-01T02:35:01;15.85;;;7.95;;
37655;SDS011;23498;50.958;3.124;2022-08-01T02:37:29;11.85;;;7.90;;
37655;SDS011;23498;50.958;3.124;2022-08-01T02:39:57;16.65;;;7.65;;
37655;SDS011;23498;50.958;3.124;2022-08-01T02:42:24;15.82;;;8.15;;
37655;SDS011;23498;50.958;3.124;2022-08-01T02:44:50;18.98;;;8.35;;
37655;SDS011;23498;50.958;3.124;2022-08-01T02:47:18;15.00;;;8.27;;
37655;SDS011;23498;50.958;3.124;2022-08-01T02:49:46;17.98;;;7.60;;
37655;SDS011;23498;50.958;3.124;2022-08-01T02:52:13;13.43;;;7.60;;
37655;SDS011;23498;50.958;3.124;2022-08-01T02:54:40;15.30;;;7.78;;
37655;SDS011;23498;50.958;3.124;2022-08-01T02:57:08;15.75;;;7.38;;
37655;SDS011;23498;50.958;3.124;2022-08-01T02:59:35;13.60;;;7.38;;
37655;SDS011;23498;50.958;3.124;2022-08-01T03:02:02;15.20;;;7.97;;
37655;SDS011;23498;50.958;3.124;2022-08-01T03:04:29;12.15;;;6.50;;
37655;SDS011;23498;50.958;3.124;2022-08-01T03:06:56;10.77;;;6.47;;
37655;SDS011;23498;50.958;3.124;2022-08-01T03:09:23;13.20;;;6.45;;
37655;SDS011;23498;50.958;3.124;2022-08-01T03:11:51;9.57;;;5.60;;
37655;SDS011;23498;50.958;3.124;2022-08-01T03:14:18;10.88;;;5.82;;
37655;SDS011;23498;50.958;3.124;2022-08-01T03:16:46;14.23;;;6.30;;
37655;SDS011;23498;50.958;3.124;2022-08-01T03:19:13;9.07;;;5.35;;
37655;SDS011;23498;50.958;3.124;2022-08-01T03:21:39;10.30;;;5.47;;
37655;SDS011;23498;50.958;3.124;2022-08-01T03:24:06;13.02;;;5.00;;
37655;SDS011;23498;50.958;3.124;2022-08-01T03:26:34;10.90;;;5.13;;
37655;SDS011;23498;50.958;3.124;2022-08-01T03:29:04;12.80;;;5.57;;
37655;SDS011;23498;50.958;3.124;2022-08-01T03:31:31;9.48;;;5.43;;
37655;SDS011;23498;50.958;3.124;2022-08-01T03:33:58;10.50;;;5.25;;
37655;SDS011;23498;50.958;3.124;2022-08-01T03:36:25;12.35;;;5.20;;
37655;SDS011;23498;50.958;3.124;2022-08-01T03:38:52;9.23;;;4.57;;
37655;SDS011;23498;50.958;3.124;2022-08-01T03:41:19;10.95;;;4.90;;
37655;SDS011;23498;50.958;3.124;2022-08-01T03:43:55;12.32;;;5.10;;
37655;SDS011;23498;50.958;3.124;2022-08-01T03:46:24;8.90;;;4.75;;
37655;SDS011;23498;50.958;3.124;2022-08-01T03:48:52;9.52;;;5.18;;
37655;SDS011;23498;50.958;3.124;2022-08-01T03:51:20;9.70;;;5.43;;
37655;SDS011;23498;50.958;3.124;2022-08-01T03:53:47;11.52;;;5.35;;
37655;SDS011;23498;50.958;3.124;2022-08-01T03:56:14;9.85;;;5.38;;
37655;SDS011;23498;50.958;3.124;2022-08-01T03:58:44;9.93;;;5.68;;
37655;SDS011;23498;50.958;3.124;2022-08-01T04:01:10;12.93;;;6.25;;
37655;SDS011;23498;50.958;3.124;2022-08-01T04:03:36;9.55;;;5.72;;
37655;SDS011;23498;50.958;3.124;2022-08-01T04:06:06;12.27;;;6.18;;
37655;SDS011;23498;50.958;3.124;2022-08-01T04:08:36;13.27;;;6.57;;
37655;SDS011;23498;50.958;3.124;2022-08-01T04:11:02;10.85;;;6.22;;
37655;SDS011;23498;50.958;3.124;2022-08-01T04:13:28;10.30;;;6.55;;
37655;SDS011;23498;50.958;3.124;2022-08-01T04:15:54;9.95;;;6.10;;
37655;SDS011;23498;50.958;3.124;2022-08-01T04:18:20;10.63;;;6.82;;
37655;SDS011;23498;50.958;3.124;2022-08-01T04:20:46;11.35;;;6.43;;
37655;SDS011;23498;50.958;3.124;2022-08-01T04:23:13;11.88;;;6.68;;
37655;SDS011;23498;50.958;3.124;2022-08-01T04:25:41;10.05;;;6.43;;
37655;SDS011;23498;50.958;3.124;2022-08-01T04:28:08;10.68;;;6.57;;
37655;SDS011;23498;50.958;3.124;2022-08-01T04:30:41;11.88;;;6.07;;
37655;SDS011;23498;50.958;3.124;2022-08-01T04:33:08;10.68;;;6.45;;
37655;SDS011;23498;50.958;3.124;2022-08-01T04:35:35;10.43;;;6.05;;
37655;SDS011;23498;50.958;3.124;2022-08-01T04:38:02;8.55;;;5.93;;
37655;SDS011;23498;50.958;3.124;2022-08-01T04:40:29;9.15;;;6.30;;
37655;SDS011;23498;50.958;3.124;2022-08-01T04:42:55;9.02;;;6.43;;
37655;SDS011;23498;50.958;3.124;2022-08-01T04:45:21;8.82;;;6.05;;
37655;SDS011;23498;50.958;3.124;2022-08-01T04:47:47;9.38;;;6.75;;
37655;SDS011;23498;50.958;3.124;2022-08-01T04:50:13;10.45;;;6.63;;
37655;SDS011;23498;50.958;3.124;2022-08-01T04:52:40;11.82;;;6.07;;
37655;SDS011;23498;50.958;3.124;2022-08-01T04:55:07;10.05;;;6.55;;
37655;SDS011;23498;50.958;3.124;2022-08-01T04:57:34;8.43;;;6.20;;
37655;SDS011;23498;50.958;3.124;2022-08-01T05:00:02;9.90;;;6.50;;
37655;SDS011;23498;50.958;3.124;2022-08-01T05:02:28;9.85;;;6.53;;
37655;SDS011;23498;50.958;3.124;2022-08-01T05:04:55;9.10;;;6.57;;
37655;SDS011;23498;50.958;3.124;2022-08-01T05:07:21;10.88;;;7.03;;
37655;SDS011;23498;50.958;3.124;2022-08-01T05:09:47;12.90;;;6.93;;
37655;SDS011;23498;50.958;3.124;2022-08-01T05:12:13;10.10;;;7.55;;
37655;SDS011;23498;50.958;3.124;2022-08-01T05:14:39;9.60;;;6.53;;
37655;SDS011;23498;50.958;3.124;2022-08-01T05:17:05;10.23;;;7.30;;
37655;SDS011;23498;50.958;3.124;2022-08-01T05:19:32;8.85;;;6.60;;
37655;SDS011;23498;50.958;3.124;2022-08-01T05:21:59;10.45;;;7.13;;
37655;SDS011;23498;50.958;3.124;2022-08-01T05:24:28;10.40;;;7.28;;
37655;SDS011;23498;50.958;3.124;2022-08-01T05:26:57;11.70;;;7.63;;
37655;SDS011;23498;50.958;3.124;2022-08-01T05:29:23;11.40;;;7.88;;
37655;SDS011;23498;50.958;3.124;2022-08-01T05:31:50;11.77;;;7.65;;
37655;SDS011;23498;50.958;3.124;2022-08-01T05:34:16;10.70;;;7.78;;
37655;SDS011;23498;50.958;3.124;2022-08-01T05:36:42;10.10;;;7.38;;
37655;SDS011;23498;50.958;3.124;2022-08-01T05:39:08;9.30;;;7.43;;
37655;SDS011;23498;50.958;3.124;2022-08-01T05:41:35;10.18;;;7.43;;
37655;SDS011;23498;50.958;3.124;2022-08-01T05:44:02;11.57;;;8.00;;
37655;SDS011;23498;50.958;3.124;2022-08-01T05:46:28;11.27;;;8.02;;
37655;SDS011;23498;50.958;3.124;2022-08-01T05:48:55;10.45;;;7.90;;
37655;SDS011;23498;50.958;3.124;2022-08-01T05:51:21;12.52;;;8.50;;
37655;SDS011;23498;50.958;3.124;2022-08-01T05:53:47;11.32;;;8.55;;
37655;SDS011;23498;50.958;3.124;2022-08-01T05:56:13;13.68;;;8.27;;
37655;SDS011;23498;50.958;3.124;2022-08-01T05:58:40;11.50;;;7.97;;
37655;SDS011;23498;50.958;3.124;2022-08-01T06:01:06;10.55;;;7.97;;
37655;SDS011;23498;50.958;3.124;2022-08-01T06:03:32;9.48;;;7.55;;
37655;SDS011;23498;50.958;3.124;2022-08-01T06:05:58;9.35;;;7.50;;
37655;SDS011;23498;50.958;3.124;2022-08-01T06:08:24;12.20;;;7.70;;
37655;SDS011;23498;50.958;3.124;2022-08-01T06:10:50;9.88;;;7.25;;
37655;SDS011;23498;50.958;3.124;2022-08-01T06:13:16;9.35;;;7.43;;
37655;SDS011;23498;50.958;3.124;2022-08-01T06:15:44;8.68;;;6.90;;
37655;SDS011;23498;50.958;3.124;2022-08-01T06:18:10;7.30;;;6.28;;
37655;SDS011;23498;50.958;3.124;2022-08-01T06:20:37;8.73;;;6.40;;
37655;SDS011;23498;50.958;3.124;2022-08-01T06:23:03;8.55;;;6.38;;
37655;SDS011;23498;50.958;3.124;2022-08-01T06:25:29;8.88;;;6.40;;
37655;SDS011;23498;50.958;3.124;2022-08-01T06:27:55;9.65;;;6.88;;
37655;SDS011;23498;50.958;3.124;2022-08-01T06:30:21;9.70;;;6.40;;
37655;SDS011;23498;50.958;3.124;2022-08-01T06:32:47;9.05;;;6.40;;
37655;SDS011;23498;50.958;3.124;2022-08-01T06:35:13;10.77;;;6.88;;
37655;SDS011;23498;50.958;3.124;2022-08-01T06:37:39;9.73;;;6.00;;
37655;SDS011;23498;50.958;3.124;2022-08-01T06:40:06;9.40;;;6.47;;
37655;SDS011;23498;50.958;3.124;2022-08-01T06:42:33;8.13;;;5.45;;
37655;SDS011;23498;50.958;3.124;2022-08-01T06:45:06;8.20;;;5.13;;
37655;SDS011;23498;50.958;3.124;2022-08-01T06:47:32;7.88;;;5.65;;
37655;SDS011;23498;50.958;3.124;2022-08-01T06:49:58;9.10;;;5.38;;
37655;SDS011;23498;50.958;3.124;2022-08-01T06:52:24;7.68;;;5.15;;
37655;SDS011;23498;50.958;3.124;2022-08-01T06:54:51;9.63;;;5.63;;
37655;SDS011;23498;50.958;3.124;2022-08-01T06:57:17;8.07;;;5.40;;
37655;SDS011;23498;50.958;3.124;2022-08-01T06:59:43;7.28;;;5.28;;
37655;SDS011;23498;50.958;3.124;2022-08-01T07:02:09;7.95;;;5.13;;
37655;SDS011;23498;50.958;3.124;2022-08-01T07:04:35;8.98;;;5.55;;
37655;SDS011;23498;50.958;3.124;2022-08-01T07:07:01;9.15;;;5.68;;
37655;SDS011;23498;50.958;3.124;2022-08-01T07:09:27;9.10;;;5.38;;
37655;SDS011;23498;50.958;3.124;2022-08-01T07:11:54;9.82;;;5.07;;
37655;SDS011;23498;50.958;3.124;2022-08-01T07:14:20;6.72;;;3.70;;
37655;SDS011;23498;50.958;3.124;2022-08-01T07:16:46;7.82;;;4.40;;
37655;SDS011;23498;50.958;3.124;2022-08-01T07:19:12;7.70;;;3.75;;
37655;SDS011;23498;50.958;3.124;2022-08-01T07:21:39;6.63;;;4.00;;
37655;SDS011;23498;50.958;3.124;2022-08-01T07:24:05;6.00;;;3.55;;
37655;SDS011;23498;50.958;3.124;2022-08-01T07:26:31;4.22;;;2.95;;
37655;SDS011;23498;50.958;3.124;2022-08-01T07:28:58;5.78;;;3.63;;
37655;SDS011;23498;50.958;3.124;2022-08-01T07:31:24;6.70;;;3.40;;
37655;SDS011;23498;50.958;3.124;2022-08-01T07:33:50;4.28;;;3.00;;
37655;SDS011;23498;50.958;3.124;2022-08-01T07:36:16;4.63;;;3.08;;
37655;SDS011;23498;50.958;3.124;2022-08-01T07:38:42;5.25;;;3.22;;
37655;SDS011;23498;50.958;3.124;2022-08-01T07:41:08;8.60;;;3.53;;
37655;SDS011;23498;50.958;3.124;2022-08-01T07:43:34;8.25;;;3.58;;
37655;SDS011;23498;50.958;3.124;2022-08-01T07:46:01;8.30;;;4.10;;
37655;SDS011;23498;50.958;3.124;2022-08-01T07:48:27;8.63;;;3.60;;
37655;SDS011;23498;50.958;3.124;2022-08-01T07:50:53;7.40;;;3.33;;
37655;SDS011;23498;50.958;3.124;2022-08-01T07:53:19;6.65;;;3.58;;
37655;SDS011;23498;50.958;3.124;2022-08-01T07:55:45;5.45;;;3.60;;
37655;SDS011;23498;50.958;3.124;2022-08-01T07:58:11;6.75;;;3.80;;
37655;SDS011;23498;50.958;3.124;2022-08-01T08:00:37;7.32;;;4.22;;
37655;SDS011;23498;50.958;3.124;2022-08-01T08:03:03;5.75;;;3.95;;
37655;SDS011;23498;50.958;3.124;2022-08-01T08:05:30;6.78;;;3.85;;
37655;SDS011;23498;50.958;3.124;2022-08-01T08:07:57;8.80;;;3.90;;
37655;SDS011;23498;50.958;3.124;2022-08-01T08:10:23;6.15;;;3.50;;
37655;SDS011;23498;50.958;3.124;2022-08-01T08:12:49;6.82;;;3.72;;
37655;SDS011;23498;50.958;3.124;2022-08-01T08:15:15;6.47;;;4.13;;
37655;SDS011;23498;50.958;3.124;2022-08-01T08:17:41;5.53;;;3.80;;
37655;SDS011;23498;50.958;3.124;2022-08-01T08:20:08;8.95;;;4.40;;
37655;SDS011;23498;50.958;3.124;2022-08-01T08:22:34;7.18;;;4.28;;
37655;SDS011;23498;50.958;3.124;2022-08-01T08:25:00;8.50;;;4.20;;
37655;SDS011;23498;50.958;3.124;2022-08-01T08:27:26;7.78;;;3.88;;
37655;SDS011;23498;50.958;3.124;2022-08-01T08:29:52;7.97;;;3.78;;
37655;SDS011;23498;50.958;3.124;2022-08-01T08:32:18;6.90;;;3.30;;
37655;SDS011;23498;50.958;3.124;2022-08-01T08:34:44;8.13;;;3.53;;
37655;SDS011;23498;50.958;3.124;2022-08-01T08:37:10;6.72;;;3.80;;
37655;SDS011;23498;50.958;3.124;2022-08-01T08:39:37;6.28;;;3.33;;
37655;SDS011;23498;50.958;3.124;2022-08-01T08:42:07;6.13;;;4.10;;
37655;SDS011;23498;50.958;3.124;2022-08-01T08:44:33;15.88;;;4.05;;
37655;SDS011;23498;50.958;3.124;2022-08-01T08:47:00;6.78;;;3.47;;
37655;SDS011;23498;50.958;3.124;2022-08-01T08:49:28;9.05;;;3.50;;
37655;SDS011;23498;50.958;3.124;2022-08-01T08:51:57;5.80;;;3.00;;
37655;SDS011;23498;50.958;3.124;2022-08-01T08:54:25;5.47;;;2.90;;
37655;SDS011;23498;50.958;3.124;2022-08-01T08:56:52;6.32;;;3.33;;
37655;SDS011;23498;50.958;3.124;2022-08-01T08:59:19;4.90;;;2.90;;
37655;SDS011;23498;50.958;3.124;2022-08-01T09:01:45;5.78;;;2.60;;
37655;SDS011;23498;50.958;3.124;2022-08-01T09:04:11;4.82;;;2.53;;
37655;SDS011;23498;50.958;3.124;2022-08-01T09:06:38;5.63;;;2.42;;
37655;SDS011;23498;50.958;3.124;2022-08-01T09:09:05;6.45;;;2.30;;
37655;SDS011;23498;50.958;3.124;2022-08-01T09:11:31;4.60;;;2.40;;
37655;SDS011;23498;50.958;3.124;2022-08-01T09:17:02;4.07;;;2.70;;
37655;SDS011;23498;50.958;3.124;2022-08-01T09:19:35;4.75;;;2.60;;
37655;SDS011;23498;50.958;3.124;2022-08-01T09:22:03;5.40;;;2.42;;
37655;SDS011;23498;50.958;3.124;2022-08-01T09:24:29;6.63;;;2.60;;
37655;SDS011;23498;50.958;3.124;2022-08-01T09:26:56;5.75;;;2.50;;
37655;SDS011;23498;50.958;3.124;2022-08-01T09:29:23;4.00;;;2.30;;
37655;SDS011;23498;50.958;3.124;2022-08-01T09:31:50;3.95;;;2.75;;
37655;SDS011;23498;50.958;3.124;2022-08-01T09:34:23;4.22;;;2.10;;
37655;SDS011;23498;50.958;3.124;2022-08-01T09:36:50;4.22;;;2.17;;
37655;SDS011;23498;50.958;3.124;2022-08-01T09:39:18;5.85;;;2.40;;
37655;SDS011;23498;50.958;3.124;2022-08-01T09:41:44;3.58;;;1.85;;
37655;SDS011;23498;50.958;3.124;2022-08-01T09:44:11;2.28;;;1.40;;
37655;SDS011;23498;50.958;3.124;2022-08-01T09:46:48;3.95;;;2.10;;
37655;SDS011;23498;50.958;3.124;2022-08-01T09:49:14;3.55;;;1.40;;
37655;SDS011;23498;50.958;3.124;2022-08-01T09:51:40;3.80;;;2.13;;
37655;SDS011;23498;50.958;3.124;2022-08-01T09:54:06;4.05;;;1.77;;
37655;SDS011;23498;50.958;3.124;2022-08-01T09:56:37;4.40;;;1.88;;
37655;SDS011;23498;50.958;3.124;2022-08-01T09:59:03;4.15;;;2.00;;
37655;SDS011;23498;50.958;3.124;2022-08-01T10:01:41;3.88;;;2.00;;
37655;SDS011;23498;50.958;3.124;2022-08-01T10:06:36;4.78;;;2.00;;
37655;SDS011;23498;50.958;3.124;2022-08-01T10:09:03;4.60;;;1.95;;
37655;SDS011;23498;50.958;3.124;2022-08-01T10:11:28;5.50;;;1.85;;
37655;SDS011;23498;50.958;3.124;2022-08-01T10:13:56;3.30;;;1.52;;
37655;SDS011;23498;50.958;3.124;2022-08-01T10:16:24;2.78;;;1.52;;
37655;SDS011;23498;50.958;3.124;2022-08-01T10:18:50;5.15;;;2.10;;
37655;SDS011;23498;50.958;3.124;2022-08-01T10:21:16;4.22;;;1.73;;
37655;SDS011;23498;50.958;3.124;2022-08-01T10:23:43;3.90;;;1.95;;
37655;SDS011;23498;50.958;3.124;2022-08-01T10:26:10;4.10;;;2.05;;
37655;SDS011;23498;50.958;3.124;2022-08-01T10:28:38;3.42;;;1.90;;
37655;SDS011;23498;50.958;3.124;2022-08-01T10:31:05;5.40;;;1.95;;
37655;SDS011;23498;50.958;3.124;2022-08-01T10:33:32;3.42;;;2.03;;
37655;SDS011;23498;50.958;3.124;2022-08-01T10:35:58;4.68;;;2.03;;
37655;SDS011;23498;50.958;3.124;2022-08-01T10:38:24;4.50;;;3.15;;
37655;SDS011;23498;50.958;3.124;2022-08-01T10:40:52;3.95;;;1.90;;
37655;SDS011;23498;50.958;3.124;2022-08-01T10:43:19;4.55;;;2.45;;
37655;SDS011;23498;50.958;3.124;2022-08-01T10:45:45;3.70;;;1.83;;
37655;SDS011;23498;50.958;3.124;2022-08-01T10:50:38;5.70;;;1.88;;
37655;SDS011;23498;50.958;3.124;2022-08-01T10:55:44;3.53;;;1.88;;
37655;SDS011;23498;50.958;3.124;2022-08-01T10:58:10;3.78;;;1.95;;
37655;SDS011;23498;50.958;3.124;2022-08-01T11:00:36;3.60;;;1.90;;
37655;SDS011;23498;50.958;3.124;2022-08-01T11:03:02;2.90;;;1.70;;
37655;SDS011;23498;50.958;3.124;2022-08-01T11:05:33;3.20;;;1.80;;
37655;SDS011;23498;50.958;3.124;2022-08-01T11:08:03;2.87;;;1.60;;
37655;SDS011;23498;50.958;3.124;2022-08-01T11:10:41;3.47;;;2.10;;
37655;SDS011;23498;50.958;3.124;2022-08-01T11:13:11;3.80;;;2.03;;
37655;SDS011;23498;50.958;3.124;2022-08-01T11:15:38;2.88;;;1.60;;
37655;SDS011;23498;50.958;3.124;2022-08-01T11:20:58;3.90;;;2.20;;
37655;SDS011;23498;50.958;3.124;2022-08-01T11:23:25;5.63;;;2.28;;
37655;SDS011;23498;50.958;3.124;2022-08-01T11:28:22;4.70;;;2.28;;
37655;SDS011;23498;50.958;3.124;2022-08-01T11:30:49;6.18;;;2.60;;
37655;SDS011;23498;50.958;3.124;2022-08-01T11:33:16;3.45;;;2.20;;
37655;SDS011;23498;50.958;3.124;2022-08-01T11:36:16;6.53;;;2.00;;
37655;SDS011;23498;50.958;3.124;2022-08-01T11:38:32;3.17;;;1.70;;
37655;SDS011;23498;50.958;3.124;2022-08-01T11:41:41;4.60;;;1.90;;
37655;SDS011;23498;50.958;3.124;2022-08-01T11:51:57;2.45;;;1.85;;
37655;SDS011;23498;50.958;3.124;2022-08-01T11:54:27;3.15;;;1.88;;
37655;SDS011;23498;50.958;3.124;2022-08-01T11:56:55;3.15;;;1.80;;
37655;SDS011;23498;50.958;3.124;2022-08-01T11:59:21;2.70;;;1.80;;
37655;SDS011;23498;50.958;3.124;2022-08-01T12:01:48;9.05;;;2.00;;
37655;SDS011;23498;50.958;3.124;2022-08-01T12:04:14;6.40;;;1.90;;
37655;SDS011;23498;50.958;3.124;2022-08-01T12:06:40;22.85;;;3.40;;
37655;SDS011;23498;50.958;3.124;2022-08-01T12:09:16;3.45;;;1.55;;
37655;SDS011;23498;50.958;3.124;2022-08-01T12:11:42;3.42;;;1.60;;
37655;SDS011;23498;50.958;3.124;2022-08-01T12:14:08;3.13;;;1.60;;
37655;SDS011;23498;50.958;3.124;2022-08-01T12:16:34;4.35;;;1.52;;
37655;SDS011;23498;50.958;3.124;2022-08-01T12:19:00;6.07;;;1.90;;
37655;SDS011;23498;50.958;3.124;2022-08-01T12:21:26;2.72;;;1.40;;
37655;SDS011;23498;50.958;3.124;2022-08-01T12:24:02;5.05;;;2.00;;
37655;SDS011;23498;50.958;3.124;2022-08-01T12:26:40;2.75;;;1.58;;
37655;SDS011;23498;50.958;3.124;2022-08-01T12:29:07;3.13;;;1.40;;
37655;SDS011;23498;50.958;3.124;2022-08-01T12:31:36;4.13;;;2.00;;
37655;SDS011;23498;50.958;3.124;2022-08-01T12:36:46;2.33;;;1.40;;
37655;SDS011;23498;50.958;3.124;2022-08-01T12:39:12;7.85;;;1.88;;
37655;SDS011;23498;50.958;3.124;2022-08-01T12:41:38;3.33;;;1.58;;
37655;SDS011;23498;50.958;3.124;2022-08-01T12:44:12;3.22;;;1.55;;
37655;SDS011;23498;50.958;3.124;2022-08-01T12:46:40;4.55;;;1.75;;
37655;SDS011;23498;50.958;3.124;2022-08-01T12:49:06;3.38;;;1.63;;
37655;SDS011;23498;50.958;3.124;2022-08-01T12:51:32;3.40;;;1.50;;
37655;SDS011;23498;50.958;3.124;2022-08-01T12:53:58;3.42;;;1.50;;
37655;SDS011;23498;50.958;3.124;2022-08-01T12:56:34;3.22;;;1.60;;
37655;SDS011;23498;50.958;3.124;2022-08-01T12:59:00;5.55;;;1.80;;
37655;SDS011;23498;50.958;3.124;2022-08-01T13:01:26;2.38;;;1.17;;
37655;SDS011;23498;50.958;3.124;2022-08-01T13:04:02;2.67;;;1.40;;
37655;SDS011;23498;50.958;3.124;2022-08-01T13:06:31;2.50;;;1.20;;
37655;SDS011;23498;50.958;3.124;2022-08-01T13:09:06;3.53;;;1.38;;
37655;SDS011;23498;50.958;3.124;2022-08-01T13:11:33;10.18;;;1.85;;
37655;SDS011;23498;50.958;3.124;2022-08-01T13:14:00;8.98;;;2.08;;
37655;SDS011;23498;50.958;3.124;2022-08-01T13:16:26;5.35;;;1.50;;
37655;SDS011;23498;50.958;3.124;2022-08-01T13:18:53;4.95;;;1.40;;
37655;SDS011;23498;50.958;3.124;2022-08-01T13:24:05;2.95;;;1.30;;
37655;SDS011;23498;50.958;3.124;2022-08-01T13:26:43;3.75;;;1.45;;
37655;SDS011;23498;50.958;3.124;2022-08-01T13:29:10;6.25;;;1.52;;
37655;SDS011;23498;50.958;3.124;2022-08-01T13:31:36;7.78;;;1.98;;
37655;SDS011;23498;50.958;3.124;2022-08-01T13:34:03;4.93;;;1.80;;
37655;SDS011;23498;50.958;3.124;2022-08-01T13:36:29;3.47;;;1.60;;
37655;SDS011;23498;50.958;3.124;2022-08-01T13:38:56;5.72;;;1.50;;
37655;SDS011;23498;50.958;3.124;2022-08-01T13:41:41;3.10;;;1.40;;
37655;SDS011;23498;50.958;3.124;2022-08-01T13:44:07;3.00;;;1.30;;
37655;SDS011;23498;50.958;3.124;2022-08-01T13:46:34;3.88;;;1.77;;
37655;SDS011;23498;50.958;3.124;2022-08-01T13:49:00;2.38;;;1.60;;
37655;SDS011;23498;50.958;3.124;2022-08-01T13:51:26;7.50;;;2.40;;
37655;SDS011;23498;50.958;3.124;2022-08-01T13:53:52;3.53;;;1.80;;
37655;SDS011;23498;50.958;3.124;2022-08-01T13:56:18;19.02;;;4.40;;
37655;SDS011;23498;50.958;3.124;2022-08-01T13:58:45;9.23;;;2.55;;
37655;SDS011;23498;50.958;3.124;2022-08-01T14:01:11;18.10;;;2.30;;
37655;SDS011;23498;50.958;3.124;2022-08-01T14:03:37;5.55;;;2.03;;
37655;SDS011;23498;50.958;3.124;2022-08-01T14:06:03;3.38;;;1.88;;
37655;SDS011;23498;50.958;3.124;2022-08-01T14:08:29;4.20;;;2.30;;
37655;SDS011;23498;50.958;3.124;2022-08-01T14:10:55;3.17;;;2.10;;
37655;SDS011;23498;50.958;3.124;2022-08-01T14:13:23;5.05;;;2.00;;
37655;SDS011;23498;50.958;3.124;2022-08-01T14:15:49;3.78;;;1.98;;
37655;SDS011;23498;50.958;3.124;2022-08-01T14:18:16;4.30;;;2.03;;
37655;SDS011;23498;50.958;3.124;2022-08-01T14:20:42;3.72;;;2.05;;
37655;SDS011;23498;50.958;3.124;2022-08-01T14:23:08;3.60;;;1.73;;
37655;SDS011;23498;50.958;3.124;2022-08-01T14:25:37;5.28;;;1.88;;
37655;SDS011;23498;50.958;3.124;2022-08-01T14:28:04;17.73;;;2.60;;
37655;SDS011;23498;50.958;3.124;2022-08-01T14:30:31;4.13;;;1.90;;
37655;SDS011;23498;50.958;3.124;2022-08-01T14:32:57;5.65;;;1.95;;
37655;SDS011;23498;50.958;3.124;2022-08-01T14:35:23;5.90;;;2.53;;
37655;SDS011;23498;50.958;3.124;2022-08-01T14:37:49;3.30;;;1.70;;
37655;SDS011;23498;50.958;3.124;2022-08-01T14:40:15;3.67;;;1.58;;
37655;SDS011;23498;50.958;3.124;2022-08-01T14:42:41;3.45;;;1.65;;
37655;SDS011;23498;50.958;3.124;2022-08-01T14:45:09;3.92;;;1.83;;
37655;SDS011;23498;50.958;3.124;2022-08-01T14:47:36;2.42;;;1.40;;
37655;SDS011;23498;50.958;3.124;2022-08-01T14:50:03;3.22;;;1.70;;
37655;SDS011;23498;50.958;3.124;2022-08-01T14:52:31;3.65;;;1.83;;
37655;SDS011;23498;50.958;3.124;2022-08-01T14:54:57;3.65;;;1.50;;
37655;SDS011;23498;50.958;3.124;2022-08-01T14:57:23;4.75;;;1.65;;
37655;SDS011;23498;50.958;3.124;2022-08-01T14:59:49;3.47;;;1.55;;
37655;SDS011;23498;50.958;3.124;2022-08-01T15:02:15;5.25;;;1.60;;
37655;SDS011;23498;50.958;3.124;2022-08-01T15:04:42;3.75;;;1.70;;
37655;SDS011;23498;50.958;3.124;2022-08-01T15:07:09;5.55;;;1.90;;
37655;SDS011;23498;50.958;3.124;2022-08-01T15:09:35;13.23;;;2.42;;
37655;SDS011;23498;50.958;3.124;2022-08-01T15:12:01;3.85;;;1.50;;
37655;SDS011;23498;50.958;3.124;2022-08-01T15:14:27;2.15;;;1.45;;
37655;SDS011;23498;50.958;3.124;2022-08-01T15:17:12;3.70;;;1.60;;
37655;SDS011;23498;50.958;3.124;2022-08-01T15:19:38;3.47;;;1.73;;
37655;SDS011;23498;50.958;3.124;2022-08-01T15:22:04;3.22;;;1.50;;
37655;SDS011;23498;50.958;3.124;2022-08-01T15:24:30;3.63;;;1.50;;
37655;SDS011;23498;50.958;3.124;2022-08-01T15:26:56;4.80;;;1.77;;
37655;SDS011;23498;50.958;3.124;2022-08-01T15:29:22;6.82;;;1.50;;